sensor_id;sensor_type;location;lat;lon;timestamp;pressure;altitude;pressure_sealevel;temperature;humidity
38612;BME280;24368;52.156;20.788;2023-04-26T00:03:34;99665.91;;;6.92;100.00
38612;BME280;24368;52.156;20.788;2023-04-26T00:08:35;99659.02;;;6.98;100.00
38612;BME280;24368;52.156;20.788;2023-04-26T00:13:36;99666.78;;;6.90;100.00
38612;BME280;24368;52.156;20.788;2023-04-26T00:18:38;99669.64;;;6.93;100.00
38612;BME280;24368;52.156;20.788;2023-04-26T00:23:39;99680.64;;;6.99;100.00
38612;BME280;24368;52.156;20.788;2023-04-26T00:28:40;99683.66;;;6.91;100.00
38612;BME280;24368;52.156;20.788;2023-04-26T00:33:42;99686.03;;;6.82;100.00
38612;BME280;24368;52.156;20.788;2023-04-26T00:38:44;99693.11;;;6.87;100.00
38612;BME280;24368;52.156;20.788;2023-04-26T00:43:45;99697.95;;;6.93;100.00
38612;BME280;24368;52.156;20.788;2023-04-26T00:48:47;99703.84;;;6.89;100.00
38612;BME280;24368;52.156;20.788;2023-04-26T00:53:48;99698.60;;;6.87;100.00
38612;BME280;24368;52.156;20.788;2023-04-26T00:58:49;99702.52;;;6.75;100.00
38612;BME280;24368;52.156;20.788;2023-04-26T01:03:50;99701.23;;;6.74;100.00
38612;BME280;24368;52.156;20.788;2023-04-26T01:08:52;99706.20;;;6.73;100.00
38612;BME280;24368;52.156;20.788;2023-04-26T01:13:55;99704.45;;;6.77;100.00
38612;BME280;24368;52.156;20.788;2023-04-26T01:18:57;99711.92;;;6.66;100.00
38612;BME280;24368;52.156;20.788;2023-04-26T01:23:59;99709.64;;;6.61;100.00
38612;BME280;24368;52.156;20.788;2023-04-26T01:29:00;99711.13;;;6.66;100.00
38612;BME280;24368;52.156;20.788;2023-04-26T01:34:01;99712.80;;;6.62;100.00
38612;BME280;24368;52.156;20.788;2023-04-26T01:39:03;99718.86;;;6.54;100.00
38612;BME280;24368;52.156;20.788;2023-04-26T01:44:04;99719.31;;;6.39;100.00
38612;BME280;24368;52.156;20.788;2023-04-26T01:49:05;99718.83;;;6.45;100.00
38612;BME280;24368;52.156;20.788;2023-04-26T01:54:06;99716.52;;;6.41;100.00
38612;BME280;24368;52.156;20.788;2023-04-26T01:59:07;99721.00;;;6.38;100.00
38612;BME280;24368;52.156;20.788;2023-04-26T02:04:09;99721.42;;;6.26;100.00
38612;BME280;24368;52.156;20.788;2023-04-26T02:09:10;99728.11;;;6.30;100.00
38612;BME280;24368;52.156;20.788;2023-04-26T02:14:11;99729.56;;;6.33;100.00
38612;BME280;24368;52.156;20.788;2023-04-26T02:19:12;99728.05;;;6.17;100.00
38612;BME280;24368;52.156;20.788;2023-04-26T02:24:14;99732.61;;;6.15;100.00
38612;BME280;24368;52.156;20.788;2023-04-26T02:29:15;99728.33;;;6.10;100.00
38612;BME280;24368;52.156;20.788;2023-04-26T02:34:16;99727.68;;;6.06;100.00
38612;BME280;24368;52.156;20.788;2023-04-26T02:39:18;99728.80;;;6.09;100.00
38612;BME280;24368;52.156;20.788;2023-04-26T02:44:19;99724.33;;;6.02;100.00
38612;BME280;24368;52.156;20.788;2023-04-26T02:49:20;99727.83;;;5.87;100.00
38612;BME280;24368;52.156;20.788;2023-04-26T02:54:21;99729.77;;;5.90;100.00
38612;BME280;24368;52.156;20.788;2023-04-26T02:59:22;99731.33;;;5.74;100.00
38612;BME280;24368;52.156;20.788;2023-04-26T03:04:23;99734.07;;;5.66;100.00
38612;BME280;24368;52.156;20.788;2023-04-26T03:09:24;99735.28;;;5.54;100.00
38612;BME280;24368;52.156;20.788;2023-04-26T03:14:25;99736.91;;;5.30;100.00
38612;BME280;24368;52.156;20.788;2023-04-26T03:19:27;99737.20;;;5.27;100.00
38612;BME280;24368;52.156;20.788;2023-04-26T03:24:28;99740.77;;;5.24;100.00
38612;BME280;24368;52.156;20.788;2023-04-26T03:29:29;99746.48;;;5.12;100.00
38612;BME280;24368;52.156;20.788;2023-04-26T03:34:30;99754.02;;;5.04;100.00
38612;BME280;24368;52.156;20.788;2023-04-26T03:39:31;99760.78;;;4.97;100.00
38612;BME280;24368;52.156;20.788;2023-04-26T03:44:33;99759.86;;;4.95;100.00
38612;BME280;24368;52.156;20.788;2023-04-26T03:49:34;99759.27;;;4.94;100.00
38612;BME280;24368;52.156;20.788;2023-04-26T03:54:35;99761.70;;;4.78;100.00
38612;BME280;24368;52.156;20.788;2023-04-26T03:59:36;99770.35;;;4.77;100.00
38612;BME280;24368;52.156;20.788;2023-04-26T04:04:37;99775.20;;;4.63;100.00
38612;BME280;24368;52.156;20.788;2023-04-26T04:09:38;99776.55;;;4.51;100.00
38612;BME280;24368;52.156;20.788;2023-04-26T04:14:39;99779.36;;;4.53;100.00
38612;BME280;24368;52.156;20.788;2023-04-26T04:19:41;99781.04;;;4.52;100.00
38612;BME280;24368;52.156;20.788;2023-04-26T04:24:42;99786.69;;;4.41;100.00
38612;BME280;24368;52.156;20.788;2023-04-26T04:29:44;99789.98;;;4.35;100.00
38612;BME280;24368;52.156;20.788;2023-04-26T04:34:45;99797.55;;;4.27;100.00
38612;BME280;24368;52.156;20.788;2023-04-26T04:39:47;99796.08;;;4.05;100.00
38612;BME280;24368;52.156;20.788;2023-04-26T04:44:48;99801.30;;;4.11;100.00
38612;BME280;24368;52.156;20.788;2023-04-26T04:49:50;99806.01;;;4.16;100.00
38612;BME280;24368;52.156;20.788;2023-04-26T04:54:51;99809.24;;;4.19;100.00
38612;BME280;24368;52.156;20.788;2023-04-26T04:59:52;99809.30;;;4.23;100.00
38612;BME280;24368;52.156;20.788;2023-04-26T05:04:53;99814.09;;;4.15;100.00
38612;BME280;24368;52.156;20.788;2023-04-26T05:09:55;99823.77;;;4.31;100.00
38612;BME280;24368;52.156;20.788;2023-04-26T05:14:56;99828.16;;;4.34;100.00
38612;BME280;24368;52.156;20.788;2023-04-26T05:19:57;99834.05;;;4.33;100.00
38612;BME280;24368;52.156;20.788;2023-04-26T05:24:58;99839.75;;;4.40;100.00
38612;BME280;24368;52.156;20.788;2023-04-26T05:29:59;99839.35;;;4.51;100.00
38612;BME280;24368;52.156;20.788;2023-04-26T05:35:01;99840.64;;;4.61;100.00
38612;BME280;24368;52.156;20.788;2023-04-26T05:40:02;99851.71;;;4.71;100.00
38612;BME280;24368;52.156;20.788;2023-04-26T05:45:04;99851.59;;;4.70;100.00
38612;BME280;24368;52.156;20.788;2023-04-26T05:50:06;99857.63;;;4.83;100.00
38612;BME280;24368;52.156;20.788;2023-04-26T05:55:08;99849.60;;;4.89;100.00
38612;BME280;24368;52.156;20.788;2023-04-26T06:00:10;99851.77;;;5.07;100.00
38612;BME280;24368;52.156;20.788;2023-04-26T06:05:13;99854.23;;;5.06;100.00
38612;BME280;24368;52.156;20.788;2023-04-26T06:10:14;99857.93;;;5.20;100.00
38612;BME280;24368;52.156;20.788;2023-04-26T06:15:15;99862.51;;;5.24;100.00
38612;BME280;24368;52.156;20.788;2023-04-26T06:20:17;99865.38;;;5.29;100.00
38612;BME280;24368;52.156;20.788;2023-04-26T06:25:21;99861.80;;;5.34;100.00
38612;BME280;24368;52.156;20.788;2023-04-26T06:30:22;99860.71;;;5.59;100.00
38612;BME280;24368;52.156;20.788;2023-04-26T06:35:23;99857.44;;;5.72;100.00
38612;BME280;24368;52.156;20.788;2023-04-26T06:40:25;99864.92;;;5.77;100.00
38612;BME280;24368;52.156;20.788;2023-04-26T06:45:26;99866.09;;;5.87;100.00
38612;BME280;24368;52.156;20.788;2023-04-26T06:50:27;99869.26;;;5.89;100.00
38612;BME280;24368;52.156;20.788;2023-04-26T06:55:28;99872.87;;;5.98;100.00
38612;BME280;24368;52.156;20.788;2023-04-26T07:00:30;99874.30;;;5.99;100.00
38612;BME280;24368;52.156;20.788;2023-04-26T07:05:31;99871.40;;;5.94;100.00
38612;BME280;24368;52.156;20.788;2023-04-26T07:10:32;99877.02;;;6.22;100.00
38612;BME280;24368;52.156;20.788;2023-04-26T07:15:33;99874.72;;;6.41;100.00
38612;BME280;24368;52.156;20.788;2023-04-26T07:20:36;99885.47;;;6.56;99.92
38612;BME280;24368;52.156;20.788;2023-04-26T07:25:37;99883.95;;;6.44;97.78
38612;BME280;24368;52.156;20.788;2023-04-26T07:30:38;99885.10;;;6.58;96.16
38612;BME280;24368;52.156;20.788;2023-04-26T07:35:39;99887.40;;;6.79;95.19
38612;BME280;24368;52.156;20.788;2023-04-26T07:40:40;99886.33;;;6.77;91.19
38612;BME280;24368;52.156;20.788;2023-04-26T07:45:43;99889.75;;;6.91;92.79
38612;BME280;24368;52.156;20.788;2023-04-26T07:50:44;99893.30;;;6.87;94.88
38612;BME280;24368;52.156;20.788;2023-04-26T07:55:45;99900.72;;;6.75;94.78
38612;BME280;24368;52.156;20.788;2023-04-26T08:00:46;99893.63;;;6.72;93.31
38612;BME280;24368;52.156;20.788;2023-04-26T08:05:47;99894.95;;;6.92;92.02
38612;BME280;24368;52.156;20.788;2023-04-26T08:10:49;99896.56;;;7.12;91.75
38612;BME280;24368;52.156;20.788;2023-04-26T08:15:50;99906.63;;;6.94;91.54
38612;BME280;24368;52.156;20.788;2023-04-26T08:20:51;99912.61;;;6.83;92.74
38612;BME280;24368;52.156;20.788;2023-04-26T08:25:55;99914.97;;;6.89;90.70
38612;BME280;24368;52.156;20.788;2023-04-26T08:30:56;99906.59;;;7.11;89.84
38612;BME280;24368;52.156;20.788;2023-04-26T08:35:58;99906.52;;;7.01;86.32
38612;BME280;24368;52.156;20.788;2023-04-26T08:41:01;99905.48;;;6.99;87.54
38612;BME280;24368;52.156;20.788;2023-04-26T08:46:06;99911.88;;;7.11;84.67
38612;BME280;24368;52.156;20.788;2023-04-26T08:51:11;99916.98;;;7.54;78.37
38612;BME280;24368;52.156;20.788;2023-04-26T08:56:13;99916.38;;;7.70;79.09
38612;BME280;24368;52.156;20.788;2023-04-26T09:01:14;99924.36;;;7.32;81.05
38612;BME280;24368;52.156;20.788;2023-04-26T09:06:17;99924.80;;;7.17;84.28
38612;BME280;24368;52.156;20.788;2023-04-26T09:11:19;99935.29;;;7.20;80.88
38612;BME280;24368;52.156;20.788;2023-04-26T09:16:33;99945.48;;;6.94;80.32
38612;BME280;24368;52.156;20.788;2023-04-26T09:21:45;99954.75;;;6.81;80.24
38612;BME280;24368;52.156;20.788;2023-04-26T09:27:00;99951.47;;;6.94;77.46
38612;BME280;24368;52.156;20.788;2023-04-26T09:32:01;99952.31;;;7.33;71.72
38612;BME280;24368;52.156;20.788;2023-04-26T09:37:02;99956.05;;;7.13;69.83
38612;BME280;24368;52.156;20.788;2023-04-26T09:42:04;99955.90;;;7.48;69.74
38612;BME280;24368;52.156;20.788;2023-04-26T09:47:07;99963.70;;;7.14;70.21
38612;BME280;24368;52.156;20.788;2023-04-26T09:52:09;99970.36;;;7.09;70.18
38612;BME280;24368;52.156;20.788;2023-04-26T09:57:15;99966.09;;;7.12;71.11
38612;BME280;24368;52.156;20.788;2023-04-26T10:07:20;99960.64;;;7.17;67.24
38612;BME280;24368;52.156;20.788;2023-04-26T10:12:21;99957.91;;;7.70;66.08
38612;BME280;24368;52.156;20.788;2023-04-26T10:17:22;99960.48;;;7.58;65.57
38612;BME280;24368;52.156;20.788;2023-04-26T10:22:31;99965.27;;;7.64;62.52
38612;BME280;24368;52.156;20.788;2023-04-26T10:48:15;99976.86;;;7.85;64.03
38612;BME280;24368;52.156;20.788;2023-04-26T10:53:20;99980.68;;;7.83;63.67
38612;BME280;24368;52.156;20.788;2023-04-26T10:58:30;99982.83;;;8.12;63.29
38612;BME280;24368;52.156;20.788;2023-04-26T11:03:32;99990.46;;;8.00;63.78
38612;BME280;24368;52.156;20.788;2023-04-26T11:08:34;99985.86;;;7.84;65.07
38612;BME280;24368;52.156;20.788;2023-04-26T11:13:42;99994.65;;;7.75;65.94
38612;BME280;24368;52.156;20.788;2023-04-26T11:18:46;99999.51;;;7.88;60.50
38612;BME280;24368;52.156;20.788;2023-04-26T11:23:54;99998.92;;;8.96;59.90
38612;BME280;24368;52.156;20.788;2023-04-26T11:28:55;100005.45;;;8.23;59.92
38612;BME280;24368;52.156;20.788;2023-04-26T11:34:05;100010.23;;;7.90;60.96
38612;BME280;24368;52.156;20.788;2023-04-26T11:39:06;100015.59;;;7.76;61.01
38612;BME280;24368;52.156;20.788;2023-04-26T11:44:10;100019.88;;;7.66;64.03
38612;BME280;24368;52.156;20.788;2023-04-26T11:49:12;100017.84;;;7.69;62.24
38612;BME280;24368;52.156;20.788;2023-04-26T11:54:29;100020.67;;;7.65;63.32
38612;BME280;24368;52.156;20.788;2023-04-26T11:59:30;100017.70;;;7.66;64.57
38612;BME280;24368;52.156;20.788;2023-04-26T12:04:31;100028.88;;;7.76;66.90
38612;BME280;24368;52.156;20.788;2023-04-26T12:09:32;100032.33;;;7.75;63.47
38612;BME280;24368;52.156;20.788;2023-04-26T12:14:37;100039.92;;;7.63;63.46
38612;BME280;24368;52.156;20.788;2023-04-26T12:19:39;100034.23;;;7.58;60.80
38612;BME280;24368;52.156;20.788;2023-04-26T12:24:41;100041.45;;;7.75;59.85
38612;BME280;24368;52.156;20.788;2023-04-26T12:29:42;100043.39;;;8.12;59.87
38612;BME280;24368;52.156;20.788;2023-04-26T12:34:44;100043.56;;;8.23;60.63
38612;BME280;24368;52.156;20.788;2023-04-26T12:39:45;100047.45;;;7.89;62.66
38612;BME280;24368;52.156;20.788;2023-04-26T12:44:46;100060.23;;;7.71;63.55
38612;BME280;24368;52.156;20.788;2023-04-26T12:49:47;100061.02;;;7.62;63.54
38612;BME280;24368;52.156;20.788;2023-04-26T12:54:48;100062.35;;;7.73;63.34
38612;BME280;24368;52.156;20.788;2023-04-26T12:59:50;100067.32;;;7.79;59.97
38612;BME280;24368;52.156;20.788;2023-04-26T13:04:51;100059.77;;;8.52;59.63
38612;BME280;24368;52.156;20.788;2023-04-26T13:09:52;100063.06;;;8.49;59.54
38612;BME280;24368;52.156;20.788;2023-04-26T13:14:54;100066.27;;;8.00;60.07
38612;BME280;24368;52.156;20.788;2023-04-26T13:19:55;100069.76;;;7.94;61.42
38612;BME280;24368;52.156;20.788;2023-04-26T13:24:56;100071.34;;;7.85;62.16
38612;BME280;24368;52.156;20.788;2023-04-26T13:29:58;100067.95;;;8.06;62.53
38612;BME280;24368;52.156;20.788;2023-04-26T13:34:59;100071.63;;;8.47;58.64
38612;BME280;24368;52.156;20.788;2023-04-26T13:40:00;100068.70;;;8.36;58.47
38612;BME280;24368;52.156;20.788;2023-04-26T13:45:01;100075.95;;;8.66;58.17
38612;BME280;24368;52.156;20.788;2023-04-26T13:50:06;100088.89;;;8.43;56.08
38612;BME280;24368;52.156;20.788;2023-04-26T13:55:07;100083.34;;;8.14;56.82
38612;BME280;24368;52.156;20.788;2023-04-26T14:00:09;100086.52;;;8.13;57.25
38612;BME280;24368;52.156;20.788;2023-04-26T14:05:11;100088.66;;;8.29;57.85
38612;BME280;24368;52.156;20.788;2023-04-26T14:10:12;100101.11;;;8.12;56.71
38612;BME280;24368;52.156;20.788;2023-04-26T14:15:13;100111.59;;;7.98;58.29
38612;BME280;24368;52.156;20.788;2023-04-26T14:20:15;100111.94;;;7.99;59.68
38612;BME280;24368;52.156;20.788;2023-04-26T14:25:16;100118.59;;;8.03;60.19
38612;BME280;24368;52.156;20.788;2023-04-26T14:30:17;100120.14;;;8.13;61.50
38612;BME280;24368;52.156;20.788;2023-04-26T14:35:18;100132.30;;;8.31;63.53
38612;BME280;24368;52.156;20.788;2023-04-26T14:40:19;100134.27;;;8.27;63.66
38612;BME280;24368;52.156;20.788;2023-04-26T14:45:20;100138.50;;;8.20;62.82
38612;BME280;24368;52.156;20.788;2023-04-26T14:50:21;100145.11;;;7.99;61.83
38612;BME280;24368;52.156;20.788;2023-04-26T14:55:22;100151.63;;;7.73;62.18
38612;BME280;24368;52.156;20.788;2023-04-26T15:00:23;100148.49;;;7.72;64.26
38612;BME280;24368;52.156;20.788;2023-04-26T15:05:25;100145.91;;;7.79;65.51
38612;BME280;24368;52.156;20.788;2023-04-26T15:10:26;100155.34;;;7.72;64.46
38612;BME280;24368;52.156;20.788;2023-04-26T15:15:27;100162.67;;;7.57;64.31
38612;BME280;24368;52.156;20.788;2023-04-26T15:20:29;100167.09;;;7.49;64.02
38612;BME280;24368;52.156;20.788;2023-04-26T15:25:33;100172.57;;;7.39;64.16
38612;BME280;24368;52.156;20.788;2023-04-26T15:30:34;100181.00;;;7.35;62.51
38612;BME280;24368;52.156;20.788;2023-04-26T15:35:36;100172.51;;;7.38;63.62
38612;BME280;24368;52.156;20.788;2023-04-26T15:40:37;100173.56;;;7.40;65.06
38612;BME280;24368;52.156;20.788;2023-04-26T15:45:38;100170.77;;;7.43;65.06
38612;BME280;24368;52.156;20.788;2023-04-26T15:50:39;100173.88;;;7.40;65.43
38612;BME280;24368;52.156;20.788;2023-04-26T15:55:40;100167.80;;;7.37;65.48
38612;BME280;24368;52.156;20.788;2023-04-26T16:00:41;100167.48;;;7.39;66.06
38612;BME280;24368;52.156;20.788;2023-04-26T16:05:42;100169.88;;;7.39;66.50
38612;BME280;24368;52.156;20.788;2023-04-26T16:10:43;100164.27;;;7.36;67.33
38612;BME280;24368;52.156;20.788;2023-04-26T16:15:44;100169.16;;;7.36;67.09
38612;BME280;24368;52.156;20.788;2023-04-26T16:20:47;100171.79;;;7.34;68.33
38612;BME280;24368;52.156;20.788;2023-04-26T16:25:48;100177.21;;;7.36;68.72
38612;BME280;24368;52.156;20.788;2023-04-26T16:30:49;100172.73;;;7.37;68.92
38612;BME280;24368;52.156;20.788;2023-04-26T16:35:51;100171.48;;;7.47;69.29
38612;BME280;24368;52.156;20.788;2023-04-26T16:40:57;100178.30;;;7.39;69.67
38612;BME280;24368;52.156;20.788;2023-04-26T16:45:59;100183.67;;;7.40;71.00
38612;BME280;24368;52.156;20.788;2023-04-26T16:51:01;100182.09;;;7.38;70.97
38612;BME280;24368;52.156;20.788;2023-04-26T16:56:03;100191.10;;;7.37;70.09
38612;BME280;24368;52.156;20.788;2023-04-26T17:01:04;100191.73;;;7.46;68.18
38612;BME280;24368;52.156;20.788;2023-04-26T17:06:06;100193.94;;;7.54;68.57
38612;BME280;24368;52.156;20.788;2023-04-26T17:11:13;100189.07;;;7.48;69.70
38612;BME280;24368;52.156;20.788;2023-04-26T17:16:14;100194.10;;;7.41;70.28
38612;BME280;24368;52.156;20.788;2023-04-26T17:21:16;100205.58;;;7.36;70.83
38612;BME280;24368;52.156;20.788;2023-04-26T17:26:17;100205.94;;;7.34;71.95
38612;BME280;24368;52.156;20.788;2023-04-26T17:31:18;100214.98;;;7.31;73.39
38612;BME280;24368;52.156;20.788;2023-04-26T17:36:19;100215.42;;;7.26;73.56
38612;BME280;24368;52.156;20.788;2023-04-26T17:41:23;100219.98;;;7.22;75.12
38612;BME280;24368;52.156;20.788;2023-04-26T17:46:24;100220.22;;;7.19;72.56
38612;BME280;24368;52.156;20.788;2023-04-26T17:51:25;100222.64;;;7.18;71.71
38612;BME280;24368;52.156;20.788;2023-04-26T17:56:27;100229.66;;;7.09;71.10
38612;BME280;24368;52.156;20.788;2023-04-26T18:01:28;100239.05;;;7.04;70.63
38612;BME280;24368;52.156;20.788;2023-04-26T18:06:29;100247.74;;;7.01;69.10
38612;BME280;24368;52.156;20.788;2023-04-26T18:11:31;100252.30;;;6.99;68.62
38612;BME280;24368;52.156;20.788;2023-04-26T18:16:33;100255.44;;;6.97;69.45
38612;BME280;24368;52.156;20.788;2023-04-26T18:21:34;100258.21;;;6.85;70.00
38612;BME280;24368;52.156;20.788;2023-04-26T18:26:35;100261.80;;;6.78;72.03
38612;BME280;24368;52.156;20.788;2023-04-26T18:31:38;100266.04;;;6.72;73.81
38612;BME280;24368;52.156;20.788;2023-04-26T18:36:40;100267.86;;;6.60;74.35
38612;BME280;24368;52.156;20.788;2023-04-26T18:41:41;100273.82;;;6.58;73.78
38612;BME280;24368;52.156;20.788;2023-04-26T18:46:42;100277.21;;;6.53;73.91
38612;BME280;24368;52.156;20.788;2023-04-26T18:51:44;100285.97;;;6.35;74.84
38612;BME280;24368;52.156;20.788;2023-04-26T18:56:45;100291.19;;;6.25;74.99
38612;BME280;24368;52.156;20.788;2023-04-26T19:01:46;100292.41;;;6.14;75.25
38612;BME280;24368;52.156;20.788;2023-04-26T19:06:49;100295.52;;;6.10;75.82
38612;BME280;24368;52.156;20.788;2023-04-26T19:11:50;100298.89;;;6.12;76.55
38612;BME280;24368;52.156;20.788;2023-04-26T19:16:51;100308.13;;;6.08;76.13
38612;BME280;24368;52.156;20.788;2023-04-26T19:21:53;100307.02;;;5.99;75.97
38612;BME280;24368;52.156;20.788;2023-04-26T19:26:54;100312.14;;;5.96;76.46
38612;BME280;24368;52.156;20.788;2023-04-26T19:31:55;100312.48;;;5.94;77.67
38612;BME280;24368;52.156;20.788;2023-04-26T19:36:59;100311.58;;;5.87;78.80
38612;BME280;24368;52.156;20.788;2023-04-26T19:42:00;100313.36;;;5.78;79.52
38612;BME280;24368;52.156;20.788;2023-04-26T19:47:02;100313.42;;;5.79;79.41
38612;BME280;24368;52.156;20.788;2023-04-26T19:52:04;100315.09;;;5.79;78.87
38612;BME280;24368;52.156;20.788;2023-04-26T19:57:05;100313.01;;;5.76;79.91
38612;BME280;24368;52.156;20.788;2023-04-26T20:02:06;100314.08;;;5.76;80.06
38612;BME280;24368;52.156;20.788;2023-04-26T20:07:07;100319.21;;;5.66;80.71
38612;BME280;24368;52.156;20.788;2023-04-26T20:12:08;100320.14;;;5.57;81.22
38612;BME280;24368;52.156;20.788;2023-04-26T20:17:10;100321.97;;;5.51;81.72
38612;BME280;24368;52.156;20.788;2023-04-26T20:22:11;100323.20;;;5.45;82.54
38612;BME280;24368;52.156;20.788;2023-04-26T20:27:12;100330.97;;;5.39;83.44
38612;BME280;24368;52.156;20.788;2023-04-26T20:32:13;100331.93;;;5.29;84.41
38612;BME280;24368;52.156;20.788;2023-04-26T20:37:14;100331.87;;;5.19;85.77
38612;BME280;24368;52.156;20.788;2023-04-26T20:42:15;100329.34;;;5.18;86.00
38612;BME280;24368;52.156;20.788;2023-04-26T20:47:16;100332.46;;;5.09;86.75
38612;BME280;24368;52.156;20.788;2023-04-26T20:52:17;100329.85;;;5.07;86.68
38612;BME280;24368;52.156;20.788;2023-04-26T20:57:19;100339.16;;;5.02;86.86
38612;BME280;24368;52.156;20.788;2023-04-26T21:02:20;100337.42;;;4.99;86.78
38612;BME280;24368;52.156;20.788;2023-04-26T21:07:21;100341.30;;;4.97;87.19
38612;BME280;24368;52.156;20.788;2023-04-26T21:12:22;100336.08;;;4.92;87.54
38612;BME280;24368;52.156;20.788;2023-04-26T21:17:24;100343.47;;;4.84;87.60
38612;BME280;24368;52.156;20.788;2023-04-26T21:22:25;100347.71;;;4.81;87.64
38612;BME280;24368;52.156;20.788;2023-04-26T21:27:26;100355.20;;;4.79;87.64
38612;BME280;24368;52.156;20.788;2023-04-26T21:32:27;100356.42;;;4.73;88.33
38612;BME280;24368;52.156;20.788;2023-04-26T21:37:28;100365.21;;;4.64;89.12
38612;BME280;24368;52.156;20.788;2023-04-26T21:42:30;100372.89;;;4.62;88.67
38612;BME280;24368;52.156;20.788;2023-04-26T21:47:31;100378.73;;;4.58;88.98
38612;BME280;24368;52.156;20.788;2023-04-26T21:52:33;100376.47;;;4.54;89.08
38612;BME280;24368;52.156;20.788;2023-04-26T21:57:34;100383.16;;;4.53;89.65
38612;BME280;24368;52.156;20.788;2023-04-26T22:02:35;100385.40;;;4.40;90.53
38612;BME280;24368;52.156;20.788;2023-04-26T22:07:36;100395.70;;;4.39;90.81
38612;BME280;24368;52.156;20.788;2023-04-26T22:12:37;100402.48;;;4.35;91.49
38612;BME280;24368;52.156;20.788;2023-04-26T22:17:38;100405.08;;;4.33;91.81
38612;BME280;24368;52.156;20.788;2023-04-26T22:22:39;100407.17;;;4.31;91.83
38612;BME280;24368;52.156;20.788;2023-04-26T22:27:40;100407.66;;;4.26;92.16
38612;BME280;24368;52.156;20.788;2023-04-26T22:32:41;100412.56;;;4.29;91.90
38612;BME280;24368;52.156;20.788;2023-04-26T22:37:42;100416.44;;;4.23;92.12
38612;BME280;24368;52.156;20.788;2023-04-26T22:42:44;100417.10;;;4.11;93.43
38612;BME280;24368;52.156;20.788;2023-04-26T22:47:45;100423.39;;;4.16;93.39
38612;BME280;24368;52.156;20.788;2023-04-26T22:52:46;100426.26;;;4.08;93.76
38612;BME280;24368;52.156;20.788;2023-04-26T22:57:47;100435.09;;;3.99;94.88
38612;BME280;24368;52.156;20.788;2023-04-26T23:02:48;100436.21;;;3.91;95.31
38612;BME280;24368;52.156;20.788;2023-04-26T23:07:50;100446.26;;;3.87;95.81
38612;BME280;24368;52.156;20.788;2023-04-26T23:12:51;100451.73;;;3.81;96.27
38612;BME280;24368;52.156;20.788;2023-04-26T23:17:52;100456.09;;;3.74;96.71
38612;BME280;24368;52.156;20.788;2023-04-26T23:22:54;100457.67;;;3.68;96.60
38612;BME280;24368;52.156;20.788;2023-04-26T23:27:55;100464.23;;;3.66;97.18
38612;BME280;24368;52.156;20.788;2023-04-26T23:32:56;100463.23;;;3.63;97.14
38612;BME280;24368;52.156;20.788;2023-04-26T23:37:57;100463.03;;;3.61;97.13
38612;BME280;24368;52.156;20.788;2023-04-26T23:42:58;100465.55;;;3.50;97.41
38612;BME280;24368;52.156;20.788;2023-04-26T23:47:59;100468.81;;;3.41;98.61
38612;BME280;24368;52.156;20.788;2023-04-26T23:53:01;100466.33;;;3.46;98.69
38612;BME280;24368;52.156;20.788;2023-04-26T23:58:02;100467.16;;;3.47;98.51
